Time;durP1;ratioP1;P1;durP2;ratioP2;P2;SDS_P1;SDS_P2;PMS_P1;PMS_P2;Temp;Humidity;BMP_temperature;BMP_pressure;BME280_temperature;BME280_humidity;BME280_pressure;Samples;Min_cycle;Max_cycle;Signal;HPM_P1;HPM_P2
2022/09/15 00:01:53;;;;;;;21.08;2.55;;;11.90;99.90;;;;;;5073945;28;20025;-70
2022/09/15 00:04:19;;;;;;;13.63;2.53;;;12.00;99.90;;;;;;5073897;28;20476;-70
2022/09/15 00:06:44;;;;;;;10.50;1.83;;;12.00;99.90;;;;;;5073819;28;20021;-69
2022/09/15 00:09:10;;;;;;;12.85;1.98;;;12.00;99.90;;;;;;5073737;28;20511;-69
2022/09/15 00:11:36;;;;;;;11.10;2.40;;;12.00;99.90;;;;;;5074089;28;20361;-70
2022/09/15 00:14:05;;;;;;;8.80;2.15;;;12.00;99.90;;;;;;5073006;28;20036;-70
2022/09/15 00:16:31;;;;;;;7.25;2.13;;;12.00;99.90;;;;;;5073612;28;20024;-70
2022/09/15 00:18:58;;;;;;;15.27;3.38;;;12.00;99.90;;;;;;5073524;28;20028;-70
2022/09/15 00:21:26;;;;;;;10.25;1.50;;;12.00;99.90;;;;;;5073598;28;20491;-69
2022/09/15 00:23:53;;;;;;;14.48;2.03;;;12.00;99.90;;;;;;5073837;28;20495;-70
2022/09/15 00:26:20;;;;;;;9.10;1.83;;;12.00;99.90;;;;;;5073739;28;20116;-70
2022/09/15 00:28:47;;;;;;;11.63;2.72;;;12.00;99.90;;;;;;5073169;28;20025;-70
2022/09/15 00:31:16;;;;;;;10.82;2.13;;;12.00;99.90;;;;;;5073845;28;20067;-70
2022/09/15 00:33:44;;;;;;;5.35;1.77;;;12.00;99.90;;;;;;5073313;28;20384;-70
2022/09/15 00:36:11;;;;;;;12.88;1.95;;;12.00;99.90;;;;;;5073147;28;20491;-70
2022/09/15 00:38:38;;;;;;;16.80;2.15;;;12.00;99.90;;;;;;5073468;28;20069;-70
2022/09/15 00:41:05;;;;;;;11.90;2.10;;;12.00;99.90;;;;;;5073571;28;20023;-70
2022/09/15 00:43:53;;;;;;;7.70;1.65;;;12.00;99.90;;;;;;5073489;28;20104;-70
2022/09/15 00:46:22;;;;;;;14.85;2.25;;;12.00;99.90;;;;;;5073437;28;20564;-70
2022/09/15 00:49:02;;;;;;;11.15;1.50;;;12.00;99.90;;;;;;5073540;28;20117;-70
2022/09/15 00:51:47;;;;;;;18.40;3.30;;;11.90;99.90;;;;;;5072922;28;20035;-70
2022/09/15 00:54:17;;;;;;;8.02;2.25;;;11.90;99.90;;;;;;5073464;28;20089;-70
2022/09/15 00:56:47;;;;;;;10.52;1.77;;;11.90;99.90;;;;;;5073221;28;20040;-70
2022/09/15 00:59:19;;;;;;;7.50;1.80;;;11.90;99.90;;;;;;5073687;28;20051;-69
2022/09/15 01:01:46;;;;;;;7.50;1.95;;;11.90;99.90;;;;;;5072800;28;20055;-70
2022/09/15 01:04:13;;;;;;;15.25;1.83;;;12.00;99.90;;;;;;5073056;28;20472;-70
2022/09/15 01:06:45;;;;;;;25.70;2.90;;;12.00;99.90;;;;;;5073032;28;20048;-70
2022/09/15 01:09:20;;;;;;;10.18;1.70;;;11.90;99.90;;;;;;5074563;28;20020;-70
2022/09/15 01:11:45;;;;;;;15.98;2.15;;;11.90;99.90;;;;;;5077051;28;20020;-70
2022/09/15 01:14:11;;;;;;;18.52;2.47;;;11.90;99.90;;;;;;5077603;28;20040;-70
2022/09/15 01:17:28;;;;;;;19.52;2.58;;;11.80;99.90;;;;;;5076059;28;20028;-70
2022/09/15 01:20:38;;;;;;;13.00;2.30;;;11.70;99.90;;;;;;5076610;28;20025;-70
2022/09/15 01:23:19;;;;;;;9.52;2.00;;;11.70;99.90;;;;;;5060372;28;20098;-70
2022/09/15 01:26:32;;;;;;;26.33;2.85;;;11.60;99.90;;;;;;5076455;28;20086;-70
2022/09/15 01:29:09;;;;;;;12.70;2.08;;;11.50;99.90;;;;;;5076716;28;20063;-70
2022/09/15 01:35:09;;;;;;;19.83;3.08;;;11.50;99.90;;;;;;5075809;28;20162;-70
2022/09/15 01:37:40;;;;;;;19.98;2.22;;;11.30;99.90;;;;;;5076631;28;20031;-70
2022/09/15 01:40:08;;;;;;;22.77;2.35;;;11.20;99.90;;;;;;5076579;28;20142;-70
2022/09/15 01:42:36;;;;;;;9.98;1.85;;;11.20;99.90;;;;;;5074220;28;20037;-70
2022/09/15 01:45:08;;;;;;;19.92;2.42;;;11.10;99.90;;;;;;5076113;28;20095;-70
2022/09/15 01:47:35;;;;;;;18.15;2.85;;;11.10;99.90;;;;;;5076365;28;20024;-70
2022/09/15 01:50:09;;;;;;;28.63;3.58;;;11.00;99.90;;;;;;5075976;28;20024;-69
2022/09/15 01:52:38;;;;;;;12.88;2.65;;;11.00;99.90;;;;;;5074760;28;20020;-69
2022/09/15 01:55:11;;;;;;;13.10;1.98;;;11.10;99.90;;;;;;5075877;28;20020;-70
2022/09/15 01:57:37;;;;;;;23.30;2.70;;;11.00;99.90;;;;;;5075574;28;20024;-70
2022/09/15 02:00:04;;;;;;;14.82;2.10;;;11.10;99.90;;;;;;5076058;28;20530;-70
2022/09/15 02:02:36;;;;;;;10.77;2.50;;;11.10;99.90;;;;;;5076004;28;20460;-70
2022/09/15 02:05:15;;;;;;;19.67;2.80;;;11.10;99.90;;;;;;5075765;28;20020;-70
2022/09/15 02:07:43;;;;;;;20.27;2.78;;;11.00;99.90;;;;;;5075977;28;20039;-70
2022/09/15 02:10:31;;;;;;;14.93;2.80;;;11.00;99.90;;;;;;5075165;28;20017;-70
2022/09/15 02:13:15;;;;;;;19.50;3.25;;;11.10;99.90;;;;;;5075532;28;20493;-70
2022/09/15 02:15:50;;;;;;;29.25;3.92;;;11.10;99.90;;;;;;5070823;28;20039;-70
2022/09/15 02:18:24;;;;;;;35.55;5.10;;;11.30;99.90;;;;;;5074956;28;20017;-70
2022/09/15 02:20:58;;;;;;;17.58;2.85;;;11.40;99.90;;;;;;5068101;28;20533;-70
2022/09/15 02:23:31;;;;;;;23.23;3.30;;;11.50;99.90;;;;;;5075435;28;20074;-70
2022/09/15 02:26:04;;;;;;;25.05;3.88;;;11.50;99.90;;;;;;5075727;28;20095;-70
2022/09/15 02:28:35;;;;;;;24.05;2.88;;;11.60;99.90;;;;;;5075095;28;20039;-70
2022/09/15 02:31:02;;;;;;;18.38;3.05;;;11.70;99.90;;;;;;5075567;28;20153;-70
2022/09/15 02:33:39;;;;;;;25.95;2.70;;;11.90;99.90;;;;;;5075172;28;20028;-70
2022/09/15 02:36:07;;;;;;;16.40;2.30;;;11.90;99.90;;;;;;5074934;28;20476;-70
2022/09/15 02:38:39;;;;;;;15.27;2.58;;;12.10;99.90;;;;;;5075265;28;20021;-70
2022/09/15 02:41:05;;;;;;;16.10;2.90;;;12.10;99.90;;;;;;5075395;28;20025;-70
2022/09/15 02:43:32;;;;;;;16.00;3.20;;;12.20;99.90;;;;;;5074835;28;20127;-71
2022/09/15 02:45:58;;;;;;;27.38;2.38;;;12.20;99.90;;;;;;5075275;28;20500;-71
2022/09/15 02:48:24;;;;;;;32.05;4.45;;;12.20;99.90;;;;;;5075551;28;20024;-71
2022/09/15 02:50:50;;;;;;;24.52;3.65;;;12.10;99.90;;;;;;5074676;28;20024;-71
2022/09/15 02:53:15;;;;;;;24.15;2.42;;;12.00;99.90;;;;;;5074964;28;20127;-71
2022/09/15 02:55:41;;;;;;;13.63;2.45;;;11.90;99.90;;;;;;5074950;28;20028;-71
2022/09/15 02:58:06;;;;;;;21.83;3.30;;;11.90;99.90;;;;;;5074829;28;20021;-71
2022/09/15 03:00:32;;;;;;;13.57;2.03;;;11.80;99.90;;;;;;5073589;28;20028;-71
2022/09/15 03:02:58;;;;;;;12.98;2.10;;;11.80;99.90;;;;;;5074225;28;20052;-71
2022/09/15 03:05:27;;;;;;;23.40;2.47;;;11.70;99.90;;;;;;5074992;28;20451;-71
2022/09/15 03:07:53;;;;;;;19.20;3.88;;;11.60;99.90;;;;;;5075084;28;20530;-71
2022/09/15 03:10:20;;;;;;;17.52;2.30;;;11.60;99.90;;;;;;5075322;28;20404;-71
2022/09/15 03:12:48;;;;;;;16.02;2.22;;;11.60;99.90;;;;;;5075733;28;20395;-71
2022/09/15 03:15:16;;;;;;;14.18;2.28;;;11.70;99.90;;;;;;5074979;28;20108;-71
2022/09/15 03:17:43;;;;;;;14.35;2.25;;;11.80;99.90;;;;;;5074175;28;20027;-71
2022/09/15 03:20:11;;;;;;;16.20;2.67;;;11.90;99.90;;;;;;5073241;28;20397;-71
2022/09/15 03:22:37;;;;;;;16.45;3.80;;;12.00;99.90;;;;;;5074451;28;20035;-71
2022/09/15 03:25:07;;;;;;;14.35;1.92;;;12.20;99.90;;;;;;5074622;28;20460;-71
2022/09/15 03:27:33;;;;;;;27.58;3.03;;;12.30;99.90;;;;;;5074719;28;20419;-71
2022/09/15 03:29:59;;;;;;;16.45;3.13;;;12.30;99.90;;;;;;5073784;28;20107;-71
2022/09/15 03:32:25;;;;;;;19.40;2.78;;;12.40;99.90;;;;;;5074042;28;20052;-71
2022/09/15 03:34:50;;;;;;;19.92;2.85;;;12.30;99.90;;;;;;5074596;28;20024;-71
2022/09/15 03:37:16;;;;;;;22.45;3.13;;;12.30;99.90;;;;;;5073599;28;20025;-71
2022/09/15 03:39:41;;;;;;;26.35;3.08;;;12.30;99.90;;;;;;5074308;28;20106;-71
2022/09/15 03:42:07;;;;;;;16.80;2.40;;;12.30;99.90;;;;;;5074202;28;20064;-71
2022/09/15 03:44:33;;;;;;;12.07;2.25;;;12.30;99.90;;;;;;5074026;28;20025;-71
2022/09/15 03:46:58;;;;;;;32.15;3.55;;;12.30;99.90;;;;;;5074509;28;20043;-71
2022/09/15 03:49:24;;;;;;;22.80;2.67;;;12.30;99.90;;;;;;5073672;28;20488;-71
2022/09/15 03:51:50;;;;;;;16.00;1.88;;;12.30;99.90;;;;;;5074046;28;20135;-71
2022/09/15 03:54:16;;;;;;;17.42;2.65;;;12.20;99.90;;;;;;5074206;28;20503;-71
2022/09/15 03:56:42;;;;;;;21.02;2.58;;;12.20;99.90;;;;;;5073466;28;20087;-71
2022/09/15 03:59:08;;;;;;;17.10;2.42;;;12.20;99.90;;;;;;5074060;28;20464;-71
2022/09/15 04:01:34;;;;;;;12.85;2.55;;;12.10;99.90;;;;;;5074288;28;20536;-71
2022/09/15 04:04:00;;;;;;;10.13;3.22;;;12.10;99.90;;;;;;5073929;28;20020;-71
2022/09/15 04:06:26;;;;;;;14.55;1.98;;;12.00;99.90;;;;;;5074070;28;20116;-71
2022/09/15 04:08:53;;;;;;;13.57;2.22;;;11.90;99.90;;;;;;5073969;28;20048;-71
2022/09/15 04:11:20;;;;;;;15.02;1.83;;;11.80;99.90;;;;;;5073401;28;20036;-71
2022/09/15 04:13:46;;;;;;;14.57;2.75;;;11.70;99.90;;;;;;5073938;28;20031;-71
2022/09/15 04:16:17;;;;;;;12.38;1.83;;;11.70;99.90;;;;;;5073874;28;20404;-71
2022/09/15 04:18:43;;;;;;;18.52;3.00;;;11.60;99.90;;;;;;5073722;28;20480;-71
2022/09/15 04:21:14;;;;;;;13.75;1.92;;;11.60;99.90;;;;;;5074032;28;20028;-71
2022/09/15 04:23:40;;;;;;;18.08;2.17;;;11.60;99.90;;;;;;5073485;28;20118;-71
2022/09/15 04:26:10;;;;;;;14.10;1.45;;;11.50;99.90;;;;;;5073774;28;20464;-71
2022/09/15 04:28:36;;;;;;;7.50;1.48;;;11.50;99.90;;;;;;5073734;28;20025;-71
2022/09/15 04:31:06;;;;;;;9.23;1.77;;;11.50;99.90;;;;;;5073812;28;20029;-71
2022/09/15 04:33:32;;;;;;;10.02;1.80;;;11.50;99.90;;;;;;5073078;28;20032;-71
2022/09/15 04:35:58;;;;;;;14.38;2.03;;;11.40;99.90;;;;;;5073671;28;20028;-71
2022/09/15 04:38:24;;;;;;;14.95;1.60;;;11.30;99.90;;;;;;5073647;28;20434;-71
2022/09/15 04:40:50;;;;;;;10.77;2.20;;;11.30;99.90;;;;;;5073660;28;20032;-71
2022/09/15 04:43:15;;;;;;;15.93;1.92;;;11.20;99.90;;;;;;5073594;28;20089;-71
2022/09/15 04:45:41;;;;;;;12.70;2.03;;;11.20;99.90;;;;;;5076365;28;20480;-71
2022/09/15 04:48:06;;;;;;;18.90;1.90;;;11.10;99.90;;;;;;5077698;28;20481;-71
2022/09/15 04:50:32;;;;;;;15.68;1.58;;;11.10;99.90;;;;;;5077626;28;20028;-71
2022/09/15 04:52:58;;;;;;;11.48;1.70;;;11.00;99.90;;;;;;5077308;28;20036;-71
2022/09/15 04:55:23;;;;;;;11.57;2.63;;;11.00;99.90;;;;;;5076688;28;20055;-71
2022/09/15 04:57:49;;;;;;;8.73;1.80;;;10.90;99.90;;;;;;5077933;28;20020;-71
2022/09/15 05:00:15;;;;;;;9.18;1.60;;;10.90;99.90;;;;;;5077276;28;20048;-71
2022/09/15 05:02:40;;;;;;;12.05;1.70;;;10.90;99.90;;;;;;5075960;28;20476;-71
2022/09/15 05:05:06;;;;;;;11.60;1.50;;;10.90;99.90;;;;;;5076592;28;20025;-71
2022/09/15 05:07:32;;;;;;;14.80;2.00;;;11.00;99.90;;;;;;5077307;28;20017;-71
2022/09/15 05:09:57;;;;;;;16.88;2.30;;;10.90;99.90;;;;;;5077014;28;20056;-71
2022/09/15 05:12:23;;;;;;;7.03;1.02;;;11.00;99.90;;;;;;5076700;28;20063;-71
2022/09/15 05:14:48;;;;;;;13.35;2.03;;;11.00;99.90;;;;;;5077051;28;20044;-71
2022/09/15 05:17:14;;;;;;;13.45;2.50;;;11.00;99.90;;;;;;5073056;28;20060;-71
2022/09/15 05:19:39;;;;;;;11.13;2.15;;;11.00;99.90;;;;;;5056974;28;20067;-71
2022/09/15 05:22:05;;;;;;;26.88;2.83;;;11.10;99.90;;;;;;5056769;28;20025;-71
2022/09/15 05:24:30;;;;;;;16.60;3.13;;;11.20;99.90;;;;;;5072633;28;20035;-71
2022/09/15 05:26:56;;;;;;;27.63;2.83;;;11.40;99.90;;;;;;5076756;28;20074;-70
2022/09/15 05:29:21;;;;;;;9.60;1.50;;;11.50;99.90;;;;;;5076736;28;20035;-71
2022/09/15 05:31:47;;;;;;;13.23;2.55;;;11.50;99.90;;;;;;5076763;28;20025;-71
2022/09/15 05:34:12;;;;;;;15.45;2.28;;;11.60;99.90;;;;;;5076672;28;20029;-71
2022/09/15 05:36:38;;;;;;;17.73;2.63;;;11.50;99.90;;;;;;5077389;28;20036;-70
2022/09/15 05:39:04;;;;;;;19.33;2.72;;;11.50;99.90;;;;;;5077940;28;20020;-71
2022/09/15 05:41:29;;;;;;;7.93;1.63;;;11.40;99.90;;;;;;5076506;28;20025;-71
2022/09/15 05:43:56;;;;;;;17.48;2.28;;;11.40;99.90;;;;;;5076375;28;20036;-71
2022/09/15 05:46:24;;;;;;;16.85;1.92;;;11.50;99.90;;;;;;5076583;28;20025;-71
2022/09/15 05:48:52;;;;;;;12.32;2.22;;;11.40;99.90;;;;;;5076318;28;20044;-71
2022/09/15 05:51:19;;;;;;;16.80;3.38;;;11.30;99.90;;;;;;5075809;28;20056;-71
2022/09/15 05:53:44;;;;;;;11.75;1.85;;;11.30;99.90;;;;;;5076095;28;20031;-71
2022/09/15 05:56:12;;;;;;;12.48;2.13;;;11.30;99.90;;;;;;5075829;28;20033;-71
2022/09/15 05:58:39;;;;;;;10.40;1.95;;;11.30;99.90;;;;;;5076196;28;20635;-71
2022/09/15 06:01:08;;;;;;;15.55;2.83;;;11.30;99.90;;;;;;5076463;28;20099;-71
2022/09/15 06:03:34;;;;;;;20.83;2.78;;;11.30;99.90;;;;;;5076128;28;20089;-71
2022/09/15 06:06:05;;;;;;;24.17;3.25;;;11.40;99.90;;;;;;5075535;28;20024;-71
2022/09/15 06:08:32;;;;;;;23.40;3.28;;;11.40;99.90;;;;;;5076595;28;20549;-71
2022/09/15 06:11:22;;;;;;;10.98;1.90;;;11.50;99.90;;;;;;5076073;28;20032;-71
2022/09/15 06:13:47;;;;;;;13.23;2.03;;;11.60;99.90;;;;;;5075659;28;20482;-71
2022/09/15 06:16:19;;;;;;;11.38;2.60;;;11.70;99.90;;;;;;5076057;28;20024;-71
2022/09/15 06:18:46;;;;;;;13.02;2.33;;;11.80;99.90;;;;;;5075850;28;20032;-71
2022/09/15 06:21:14;;;;;;;13.95;2.40;;;11.90;99.90;;;;;;5076041;28;20465;-71
2022/09/15 06:23:40;;;;;;;21.40;2.28;;;12.00;99.90;;;;;;5074984;28;20025;-71
2022/09/15 06:26:17;;;;;;;12.57;2.55;;;12.10;99.90;;;;;;5075701;28;20099;-71
2022/09/15 06:28:52;;;;;;;16.02;2.15;;;12.20;99.90;;;;;;5075389;28;20104;-71
2022/09/15 06:31:18;;;;;;;14.38;2.17;;;12.30;99.90;;;;;;5075102;28;20021;-71
2022/09/15 06:33:46;;;;;;;22.98;2.30;;;12.40;99.90;;;;;;5075334;28;20103;-71
2022/09/15 06:36:13;;;;;;;17.67;4.45;;;12.60;99.90;;;;;;5073863;28;20477;-71
2022/09/15 06:38:40;;;;;;;19.30;2.58;;;12.70;99.90;;;;;;5075497;28;20108;-71
2022/09/15 06:41:07;;;;;;;16.88;2.60;;;12.80;99.90;;;;;;5075295;28;20028;-71
2022/09/15 06:43:33;;;;;;;18.25;1.77;;;13.00;99.90;;;;;;5074461;28;20480;-71
2022/09/15 06:46:13;;;;;;;17.98;2.63;;;13.20;99.90;;;;;;5075347;28;20051;-71
2022/09/15 06:48:39;;;;;;;16.85;2.08;;;13.50;99.90;;;;;;5075262;28;20031;-71
2022/09/15 06:51:07;;;;;;;12.85;2.35;;;13.70;99.90;;;;;;5074289;28;20121;-71
2022/09/15 06:53:34;;;;;;;13.07;1.85;;;13.60;99.90;;;;;;5074861;28;20032;-71
2022/09/15 06:56:04;;;;;;;16.15;2.38;;;13.20;99.90;;;;;;5074911;28;20060;-70
2022/09/15 06:58:31;;;;;;;11.65;1.83;;;12.80;99.90;;;;;;5075169;28;20020;-71
2022/09/15 07:01:11;;;;;;;12.65;2.10;;;12.40;99.90;;;;;;5074215;28;20061;-71
2022/09/15 07:03:37;;;;;;;10.55;2.38;;;12.20;99.90;;;;;;5075134;28;20020;-71
2022/09/15 07:06:04;;;;;;;10.45;1.95;;;12.10;99.90;;;;;;5073626;28;20025;-71
2022/09/15 07:08:29;;;;;;;7.90;2.00;;;12.00;99.90;;;;;;5074374;28;20384;-71
2022/09/15 07:10:55;;;;;;;19.55;2.50;;;11.90;99.90;;;;;;5074724;28;20021;-70
2022/09/15 07:13:22;;;;;;;15.85;2.72;;;11.90;99.90;;;;;;5074277;28;20084;-71
2022/09/15 07:16:02;;;;;;;9.40;2.30;;;12.10;99.90;;;;;;5074574;28;20105;-71
2022/09/15 07:18:27;;;;;;;15.60;2.55;;;12.30;99.90;;;;;;5074869;28;20486;-71
2022/09/15 07:21:04;;;;;;;18.02;2.22;;;12.50;99.90;;;;;;5074460;28;20048;-71
2022/09/15 07:23:31;;;;;;;13.90;2.22;;;12.70;99.90;;;;;;5074297;28;20031;-71
2022/09/15 07:26:10;;;;;;;18.27;2.17;;;12.80;99.90;;;;;;5074023;28;20048;-69
2022/09/15 07:28:37;;;;;;;22.13;2.55;;;13.00;99.90;;;;;;5074560;28;20384;-71
2022/09/15 07:31:04;;;;;;;6.68;2.08;;;13.10;99.90;;;;;;5074305;28;20024;-71
2022/09/15 07:33:30;;;;;;;16.50;2.08;;;13.30;99.90;;;;;;5074562;28;20024;-71
2022/09/15 07:35:56;;;;;;;23.00;2.25;;;13.50;99.90;;;;;;5072536;28;20456;-71
2022/09/15 07:38:21;;;;;;;10.10;2.20;;;13.70;99.90;;;;;;5074648;28;20048;-71
2022/09/15 07:40:48;;;;;;;8.93;1.90;;;13.80;99.90;;;;;;5074262;28;20059;-71
2022/09/15 07:43:14;;;;;;;16.77;2.83;;;13.80;99.90;;;;;;5074120;28;20033;-71
2022/09/15 07:45:39;;;;;;;19.50;3.22;;;13.70;99.90;;;;;;5074188;28;20473;-71
2022/09/15 07:48:05;;;;;;;8.77;1.80;;;13.70;99.90;;;;;;5072261;28;20123;-71
2022/09/15 07:50:31;;;;;;;12.00;2.67;;;13.70;99.90;;;;;;5074188;28;20059;-71
2022/09/15 07:52:56;;;;;;;14.85;2.00;;;13.90;99.90;;;;;;5074122;28;20035;-71
2022/09/15 07:55:23;;;;;;;12.73;1.83;;;14.10;99.90;;;;;;5074068;28;20521;-71
2022/09/15 07:58:02;;;;;;;9.85;1.60;;;14.40;99.90;;;;;;5074114;28;20047;-71
2022/09/15 08:00:28;;;;;;;13.43;2.38;;;15.00;99.90;;;;;;5074111;28;20017;-72
2022/09/15 08:02:54;;;;;;;12.15;2.22;;;15.20;99.90;;;;;;5074911;28;20091;-71
2022/09/15 08:05:22;;;;;;;15.82;2.47;;;15.00;99.90;;;;;;5075172;28;20103;-71
2022/09/15 08:07:48;;;;;;;19.60;3.30;;;14.50;99.90;;;;;;5074738;28;20056;-71
2022/09/15 08:10:14;;;;;;;27.55;3.55;;;14.10;99.90;;;;;;5073369;28;20020;-71
2022/09/15 08:12:39;;;;;;;13.00;2.33;;;13.80;99.90;;;;;;5073878;28;20377;-71
2022/09/15 08:15:05;;;;;;;13.25;2.30;;;13.60;99.90;;;;;;5073860;28;20468;-71
2022/09/15 08:17:31;;;;;;;15.90;1.98;;;13.50;99.90;;;;;;5073954;28;20027;-71
2022/09/15 08:19:57;;;;;;;17.73;2.85;;;13.70;99.90;;;;;;5077626;28;20027;-71
2022/09/15 08:22:22;;;;;;;14.43;2.22;;;14.10;99.90;;;;;;5078124;28;20380;-71
2022/09/15 08:24:48;;;;;;;7.47;1.45;;;14.40;99.90;;;;;;5077922;28;20027;-71
2022/09/15 08:27:13;;;;;;;12.90;2.13;;;14.60;99.90;;;;;;5077856;28;20028;-71
2022/09/15 08:29:39;;;;;;;13.93;2.00;;;14.70;99.90;;;;;;5078246;28;20033;-71
2022/09/15 08:32:05;;;;;;;9.60;2.00;;;14.80;99.90;;;;;;5078196;28;20034;-71
2022/09/15 08:34:30;;;;;;;12.25;2.45;;;15.00;99.90;;;;;;5077471;28;20020;-71
2022/09/15 08:36:56;;;;;;;14.93;3.38;;;15.30;99.90;;;;;;5078145;28;20085;-71
2022/09/15 08:39:21;;;;;;;18.70;3.13;;;15.70;99.90;;;;;;5077869;28;20024;-71
2022/09/15 08:41:49;;;;;;;12.82;2.28;;;16.10;99.90;;;;;;5077615;28;20023;-71
2022/09/15 08:44:21;;;;;;;14.43;2.47;;;15.70;99.90;;;;;;5077819;28;20074;-70
2022/09/15 08:46:50;;;;;;;12.02;2.47;;;15.20;99.90;;;;;;5076709;28;20032;-70
2022/09/15 08:49:27;;;;;;;11.68;2.00;;;14.70;99.90;;;;;;5077230;28;20025;-70
2022/09/15 08:51:55;;;;;;;7.63;2.00;;;14.60;99.90;;;;;;5077095;28;20025;-70
2022/09/15 08:54:26;;;;;;;18.77;2.47;;;14.80;99.90;;;;;;5077187;28;20056;-69
2022/09/15 08:56:55;;;;;;;14.25;2.15;;;15.00;99.90;;;;;;5077050;28;20033;-70
2022/09/15 08:59:20;;;;;;;10.85;2.25;;;15.30;99.90;;;;;;5077031;28;20066;-70
2022/09/15 09:02:12;;;;;;;7.82;1.90;;;15.50;99.90;;;;;;5076461;28;20484;-70
2022/09/15 09:05:05;;;;;;;11.13;1.75;;;15.80;99.90;;;;;;5077231;28;20574;-70
2022/09/15 09:07:49;;;;;;;11.02;1.75;;;16.00;99.90;;;;;;5077231;28;20092;-69
2022/09/15 09:10:24;;;;;;;11.63;1.95;;;16.40;99.90;;;;;;5076862;28;20020;-69
2022/09/15 09:13:17;;;;;;;13.35;2.20;;;16.70;99.90;;;;;;5076635;28;20400;-70
2022/09/15 09:16:04;;;;;;;15.30;2.03;;;16.90;99.90;;;;;;5076643;28;20042;-70
2022/09/15 09:18:38;;;;;;;15.98;2.78;;;16.90;99.90;;;;;;5076856;28;20032;-70
2022/09/15 09:21:19;;;;;;;9.45;2.10;;;16.80;99.90;;;;;;5076931;28;20508;-70
2022/09/15 09:24:12;;;;;;;10.35;2.30;;;17.00;99.90;;;;;;5076039;28;20081;-70
2022/09/15 09:26:38;;;;;;;19.00;3.97;;;17.10;99.90;;;;;;5076609;28;20439;-70
2022/09/15 09:29:18;;;;;;;7.97;2.25;;;17.10;99.90;;;;;;5076683;28;20052;-70
2022/09/15 09:31:49;;;;;;;10.38;2.42;;;16.90;99.90;;;;;;5076220;28;20028;-70
2022/09/15 09:34:37;;;;;;;12.63;2.60;;;16.90;99.90;;;;;;5076702;28;20033;-69
2022/09/15 09:37:14;;;;;;;14.32;2.20;;;16.90;99.90;;;;;;5075660;28;20031;-69
2022/09/15 09:39:40;;;;;;;12.23;2.35;;;16.80;99.90;;;;;;5076229;28;20028;-69
2022/09/15 09:42:12;;;;;;;19.05;3.33;;;16.20;99.90;;;;;;5076144;28;20017;-69
2022/09/15 09:44:39;;;;;;;11.82;1.83;;;15.00;99.90;;;;;;5076234;28;20025;-69
2022/09/15 09:47:05;;;;;;;11.07;2.15;;;14.00;99.90;;;;;;5075618;28;20032;-69
2022/09/15 09:49:38;;;;;;;11.52;1.80;;;13.50;99.90;;;;;;5076243;28;20031;-69
2022/09/15 09:52:04;;;;;;;9.20;1.83;;;13.30;99.90;;;;;;5076005;28;20472;-69
2022/09/15 09:54:31;;;;;;;14.90;2.10;;;13.10;99.90;;;;;;5075768;28;20319;-69
2022/09/15 09:57:12;;;;;;;12.02;2.63;;;13.00;99.90;;;;;;5075314;28;20023;-69
2022/09/15 09:59:41;;;;;;;20.70;2.67;;;13.00;99.90;;;;;;5076233;28;20380;-69
2022/09/15 10:02:09;;;;;;;32.60;12.00;;;13.10;99.90;;;;;;5075802;28;20092;-69
2022/09/15 10:04:39;;;;;;;13.93;4.78;;;13.70;99.90;;;;;;5076008;28;20013;-69
2022/09/15 10:07:06;;;;;;;11.15;4.10;;;14.20;99.90;;;;;;5075986;28;20024;-69
2022/09/15 10:09:31;;;;;;;15.45;2.80;;;14.00;99.90;;;;;;5075252;28;20081;-69
2022/09/15 10:12:00;;;;;;;12.43;1.80;;;13.90;99.90;;;;;;5075619;28;20028;-69
2022/09/15 10:14:34;;;;;;;10.77;1.80;;;14.20;99.90;;;;;;5075776;28;20070;-69
2022/09/15 10:17:21;;;;;;;12.50;2.30;;;14.80;99.90;;;;;;5075582;28;20037;-69
2022/09/15 10:19:55;;;;;;;11.30;2.30;;;15.10;99.90;;;;;;5075133;28;20523;-69
2022/09/15 10:22:34;;;;;;;12.15;1.75;;;15.00;99.90;;;;;;5075726;28;20047;-69
2022/09/15 10:25:18;;;;;;;14.02;2.00;;;14.70;99.90;;;;;;5075794;28;20078;-69
2022/09/15 10:27:44;;;;;;;15.68;2.08;;;14.40;99.90;;;;;;5075274;28;20047;-70
2022/09/15 10:30:13;;;;;;;15.63;2.47;;;14.00;99.90;;;;;;5076461;28;20461;-69
2022/09/15 10:32:40;;;;;;;13.35;2.80;;;14.10;99.90;;;;;;5076423;28;20244;-70
2022/09/15 10:35:10;;;;;;;23.42;3.20;;;14.50;99.90;;;;;;5075412;28;20021;-69
2022/09/15 10:37:42;;;;;;;25.38;3.60;;;15.00;99.90;;;;;;5075077;28;20519;-69
2022/09/15 10:40:25;;;;;;;22.23;2.85;;;15.40;99.90;;;;;;5075419;28;20100;-69
2022/09/15 10:42:55;;;;;;;11.83;1.80;;;15.80;99.90;;;;;;5073527;28;20024;-70
2022/09/15 10:45:45;;;;;;;18.20;2.28;;;16.30;99.90;;;;;;5075043;28;20012;-70
2022/09/15 10:48:30;;;;;;;16.10;2.92;;;16.40;99.90;;;;;;5075045;28;20066;-70
2022/09/15 10:51:52;;;;;;;16.58;2.83;;;16.10;99.90;;;;;;5074306;28;20032;-70
2022/09/15 10:54:40;;;;;;;11.90;2.33;;;15.90;99.90;;;;;;5013080;28;20092;-69
2022/09/15 10:57:31;;;;;;;19.60;2.38;;;15.90;99.90;;;;;;5013541;28;20025;-69
2022/09/15 11:00:10;;;;;;;18.15;3.03;;;16.00;99.90;;;;;;5049642;28;20454;-69
2022/09/15 11:02:54;;;;;;;19.50;2.90;;;15.90;99.90;;;;;;5074340;28;20013;-69
2022/09/15 11:05:38;;;;;;;;;;;15.80;99.90;;;;;;5075209;28;20048;-69
2022/09/15 11:08:32;;;;;;;21.27;2.53;;;15.80;99.90;;;;;;5074576;28;19959;-69
2022/09/15 11:11:05;;;;;;;11.17;2.13;;;16.10;99.90;;;;;;5074493;28;20029;-69
2022/09/15 11:13:45;;;;;;;21.10;2.33;;;16.30;99.90;;;;;;5074330;28;20033;-69
2022/09/15 11:16:30;;;;;;;7.78;1.88;;;16.50;99.90;;;;;;5074347;28;20024;-69
2022/09/15 11:19:20;;;;;;;9.48;1.95;;;16.40;99.90;;;;;;5073812;28;20017;-69
2022/09/15 11:21:54;;;;;;;16.80;2.50;;;16.50;99.90;;;;;;5074867;28;20429;-69
2022/09/15 11:24:38;;;;;;;15.43;2.13;;;16.40;99.90;;;;;;5074280;28;20017;-69
2022/09/15 11:27:06;;;;;;;;;;;16.50;99.90;;;;;;5074550;28;20038;-69
2022/09/15 11:29:38;;;;;;;13.98;2.35;;;16.70;99.90;;;;;;5073966;28;19936;-69
2022/09/15 11:32:11;;;;;;;8.57;1.90;;;17.00;99.90;;;;;;5074316;28;20070;-69
2022/09/15 11:34:58;;;;;;;12.02;1.58;;;16.70;99.90;;;;;;5074153;28;20028;-69
2022/09/15 11:37:31;;;;;;;13.18;2.00;;;16.20;99.90;;;;;;5074079;28;20059;-69
2022/09/15 11:40:13;;;;;;;10.23;1.75;;;15.70;99.90;;;;;;5074161;28;20017;-69
2022/09/15 11:42:54;;;;;;;7.85;1.08;;;15.40;99.90;;;;;;5073919;28;20415;-70
2022/09/15 11:45:33;;;;;;;6.68;1.33;;;15.90;99.90;;;;;;5074097;28;20115;-69
2022/09/15 11:48:10;;;;;;;6.07;1.48;;;16.30;99.90;;;;;;5073536;28;20025;-70
2022/09/15 11:50:40;;;;;;;12.23;2.63;;;16.70;99.90;;;;;;5074535;28;20099;-69
2022/09/15 11:53:12;;;;;;;6.70;1.92;;;17.20;99.90;;;;;;5073576;28;20016;-69
2022/09/15 11:55:57;;;;;;;6.15;1.38;;;18.00;99.90;;;;;;5073993;28;20111;-70
2022/09/15 11:58:47;;;;;;;12.45;2.08;;;17.80;99.90;;;;;;5073802;28;20069;-69
2022/09/15 12:01:18;;;;;;;16.45;2.25;;;17.70;99.90;;;;;;5073722;28;20122;-69
2022/09/15 12:03:56;;;;;;;16.85;2.60;;;18.30;99.90;;;;;;5073117;28;20103;-70
2022/09/15 12:07:00;;;;;;;20.10;2.45;;;18.70;99.90;;;;;;5072576;28;20021;-69
2022/09/15 12:09:26;;;;;;;15.40;2.17;;;18.50;99.90;;;;;;5049944;28;20454;-69
2022/09/15 12:11:59;;;;;;;9.60;2.25;;;17.10;99.90;;;;;;5073745;28;20033;-69
2022/09/15 12:14:36;;;;;;;13.97;2.70;;;15.60;99.90;;;;;;5073121;28;20123;-70
2022/09/15 12:17:03;;;;;;;13.57;2.97;;;14.50;99.90;;;;;;5073789;28;20279;-69
2022/09/15 12:19:35;;;;;;;21.60;3.20;;;14.20;99.90;;;;;;5074013;28;20090;-69
2022/09/15 12:22:30;;;;;;;15.43;2.60;;;14.80;99.90;;;;;;5073539;28;20020;-69
2022/09/15 12:25:09;;;;;;;21.42;2.90;;;15.80;99.90;;;;;;5073774;28;20017;-69
2022/09/15 12:27:35;;;;;;;21.45;2.70;;;15.90;99.90;;;;;;5073072;28;20477;-70
2022/09/15 12:30:00;;;;;;;20.63;3.05;;;15.40;99.90;;;;;;5073528;28;20035;-69
2022/09/15 12:32:28;;;;;;;22.58;3.90;;;15.00;99.90;;;;;;5073359;28;20388;-69
2022/09/15 12:35:12;;;;;;;20.50;2.60;;;14.80;99.90;;;;;;5073446;28;20049;-69
2022/09/15 12:37:52;;;;;;;23.55;2.55;;;14.60;99.90;;;;;;5073406;28;20028;-70
2022/09/15 12:40:31;;;;;;;18.25;2.85;;;14.40;99.90;;;;;;5073155;28;20044;-69
2022/09/15 12:42:57;;;;;;;21.17;3.03;;;14.30;99.90;;;;;;5073339;28;20035;-69
2022/09/15 12:45:26;;;;;;;24.33;2.40;;;14.80;99.90;;;;;;5073227;28;20032;-69
2022/09/15 12:48:19;;;;;;;20.40;2.97;;;15.70;99.90;;;;;;5073250;28;20386;-69
2022/09/15 12:50:53;;;;;;;22.35;2.60;;;16.70;99.90;;;;;;5073050;28;20423;-70
2022/09/15 12:53:25;;;;;;;13.50;2.20;;;17.60;99.90;;;;;;5072945;28;20139;-70
2022/09/15 12:55:54;;;;;;;19.95;2.58;;;18.30;99.90;;;;;;5073914;28;20025;-70
2022/09/15 12:58:45;;;;;;;12.25;2.85;;;18.60;99.90;;;;;;5073984;28;20023;-69
2022/09/15 13:01:23;;;;;;;19.63;2.75;;;18.30;99.90;;;;;;5072948;28;20103;-70
2022/09/15 13:03:48;;;;;;;14.07;3.22;;;17.60;99.90;;;;;;5073379;28;20027;-69